sensor_id;sensor_type;location;lat;lon;timestamp;P1;durP1;ratioP1;P2;durP2;ratioP2
3953;SDS011;1991;48.682;9.030;2022-08-21T00:00:34;3.97;;;1.95;;
3953;SDS011;1991;48.682;9.030;2022-08-21T00:03:02;7.82;;;1.92;;
3953;SDS011;1991;48.682;9.030;2022-08-21T00:05:30;2.45;;;1.85;;
3953;SDS011;1991;48.682;9.030;2022-08-21T00:07:57;3.10;;;1.83;;
3953;SDS011;1991;48.682;9.030;2022-08-21T00:10:24;4.50;;;1.80;;
3953;SDS011;1991;48.682;9.030;2022-08-21T00:12:50;4.82;;;1.83;;
3953;SDS011;1991;48.682;9.030;2022-08-21T00:15:18;4.10;;;1.90;;
3953;SDS011;1991;48.682;9.030;2022-08-21T00:17:46;2.78;;;2.10;;
3953;SDS011;1991;48.682;9.030;2022-08-21T00:20:13;4.65;;;2.03;;
3953;SDS011;1991;48.682;9.030;2022-08-21T00:22:40;2.63;;;1.80;;
3953;SDS011;1991;48.682;9.030;2022-08-21T00:25:07;3.42;;;1.80;;
3953;SDS011;1991;48.682;9.030;2022-08-21T00:27:34;3.22;;;1.80;;
3953;SDS011;1991;48.682;9.030;2022-08-21T00:30:00;2.55;;;1.63;;
3953;SDS011;1991;48.682;9.030;2022-08-21T00:32:26;3.10;;;2.08;;
3953;SDS011;1991;48.682;9.030;2022-08-21T00:34:53;3.97;;;1.70;;
3953;SDS011;1991;48.682;9.030;2022-08-21T00:37:19;3.53;;;2.13;;
3953;SDS011;1991;48.682;9.030;2022-08-21T00:39:45;6.32;;;2.00;;
3953;SDS011;1991;48.682;9.030;2022-08-21T00:42:12;5.97;;;2.40;;
3953;SDS011;1991;48.682;9.030;2022-08-21T00:44:45;3.05;;;2.15;;
3953;SDS011;1991;48.682;9.030;2022-08-21T00:47:12;2.70;;;1.70;;
3953;SDS011;1991;48.682;9.030;2022-08-21T00:49:38;4.55;;;2.25;;
3953;SDS011;1991;48.682;9.030;2022-08-21T00:52:05;4.63;;;2.33;;
3953;SDS011;1991;48.682;9.030;2022-08-21T00:54:35;2.17;;;1.52;;
3953;SDS011;1991;48.682;9.030;2022-08-21T00:57:05;3.45;;;2.10;;
3953;SDS011;1991;48.682;9.030;2022-08-21T00:59:38;3.72;;;1.90;;
3953;SDS011;1991;48.682;9.030;2022-08-21T01:02:08;3.97;;;1.95;;
3953;SDS011;1991;48.682;9.030;2022-08-21T01:04:35;2.72;;;1.63;;
3953;SDS011;1991;48.682;9.030;2022-08-21T01:07:01;2.83;;;1.70;;
3953;SDS011;1991;48.682;9.030;2022-08-21T01:09:28;6.10;;;1.88;;
3953;SDS011;1991;48.682;9.030;2022-08-21T01:11:53;4.20;;;2.15;;
3953;SDS011;1991;48.682;9.030;2022-08-21T01:14:19;3.53;;;1.67;;
3953;SDS011;1991;48.682;9.030;2022-08-21T01:16:46;3.42;;;1.75;;
3953;SDS011;1991;48.682;9.030;2022-08-21T01:19:14;3.83;;;1.92;;
3953;SDS011;1991;48.682;9.030;2022-08-21T01:21:42;5.28;;;1.88;;
3953;SDS011;1991;48.682;9.030;2022-08-21T01:24:08;5.47;;;2.70;;
3953;SDS011;1991;48.682;9.030;2022-08-21T01:26:34;3.20;;;1.92;;
3953;SDS011;1991;48.682;9.030;2022-08-21T01:29:03;4.38;;;1.98;;
3953;SDS011;1991;48.682;9.030;2022-08-21T01:31:38;2.75;;;1.80;;
3953;SDS011;1991;48.682;9.030;2022-08-21T01:34:04;3.25;;;2.20;;
3953;SDS011;1991;48.682;9.030;2022-08-21T01:36:29;5.30;;;1.98;;
3953;SDS011;1991;48.682;9.030;2022-08-21T01:38:55;6.55;;;2.08;;
3953;SDS011;1991;48.682;9.030;2022-08-21T01:41:21;6.47;;;2.28;;
3953;SDS011;1991;48.682;9.030;2022-08-21T01:43:47;2.95;;;2.05;;
3953;SDS011;1991;48.682;9.030;2022-08-21T01:46:13;6.65;;;2.00;;
3953;SDS011;1991;48.682;9.030;2022-08-21T01:48:39;4.97;;;2.53;;
3953;SDS011;1991;48.682;9.030;2022-08-21T01:51:05;6.85;;;1.90;;
3953;SDS011;1991;48.682;9.030;2022-08-21T01:53:31;4.88;;;1.73;;
3953;SDS011;1991;48.682;9.030;2022-08-21T01:56:00;5.53;;;2.00;;
3953;SDS011;1991;48.682;9.030;2022-08-21T01:58:27;9.05;;;2.42;;
3953;SDS011;1991;48.682;9.030;2022-08-21T02:00:52;4.30;;;1.80;;
3953;SDS011;1991;48.682;9.030;2022-08-21T02:03:18;3.42;;;1.83;;
3953;SDS011;1991;48.682;9.030;2022-08-21T02:05:44;3.70;;;1.90;;
3953;SDS011;1991;48.682;9.030;2022-08-21T02:08:10;5.68;;;2.30;;
3953;SDS011;1991;48.682;9.030;2022-08-21T02:10:36;3.42;;;2.10;;
3953;SDS011;1991;48.682;9.030;2022-08-21T02:13:02;3.88;;;2.10;;
3953;SDS011;1991;48.682;9.030;2022-08-21T02:15:28;3.72;;;2.13;;
3953;SDS011;1991;48.682;9.030;2022-08-21T02:17:57;5.38;;;2.13;;
3953;SDS011;1991;48.682;9.030;2022-08-21T02:20:26;6.22;;;2.22;;
3953;SDS011;1991;48.682;9.030;2022-08-21T02:22:54;3.55;;;1.85;;
3953;SDS011;1991;48.682;9.030;2022-08-21T02:25:21;6.38;;;2.20;;
3953;SDS011;1991;48.682;9.030;2022-08-21T02:27:47;6.82;;;2.05;;
3953;SDS011;1991;48.682;9.030;2022-08-21T02:30:22;3.65;;;1.83;;
3953;SDS011;1991;48.682;9.030;2022-08-21T02:32:50;3.78;;;2.17;;
3953;SDS011;1991;48.682;9.030;2022-08-21T02:35:16;4.55;;;2.22;;
3953;SDS011;1991;48.682;9.030;2022-08-21T02:37:50;5.97;;;2.00;;
3953;SDS011;1991;48.682;9.030;2022-08-21T02:40:19;2.63;;;1.90;;
3953;SDS011;1991;48.682;9.030;2022-08-21T02:42:47;7.85;;;2.08;;
3953;SDS011;1991;48.682;9.030;2022-08-21T02:45:13;3.55;;;1.83;;
3953;SDS011;1991;48.682;9.030;2022-08-21T02:47:40;3.17;;;1.60;;
3953;SDS011;1991;48.682;9.030;2022-08-21T02:50:17;4.30;;;2.20;;
3953;SDS011;1991;48.682;9.030;2022-08-21T02:52:49;5.03;;;2.15;;
3953;SDS011;1991;48.682;9.030;2022-08-21T02:55:17;2.80;;;1.95;;
3953;SDS011;1991;48.682;9.030;2022-08-21T02:57:43;5.72;;;1.77;;
3953;SDS011;1991;48.682;9.030;2022-08-21T03:00:09;7.85;;;2.22;;
3953;SDS011;1991;48.682;9.030;2022-08-21T03:02:37;5.20;;;1.77;;
3953;SDS011;1991;48.682;9.030;2022-08-21T03:05:03;6.07;;;2.30;;
3953;SDS011;1991;48.682;9.030;2022-08-21T03:07:30;4.28;;;2.00;;
3953;SDS011;1991;48.682;9.030;2022-08-21T03:09:56;6.90;;;2.13;;
3953;SDS011;1991;48.682;9.030;2022-08-21T03:12:22;4.13;;;2.00;;
3953;SDS011;1991;48.682;9.030;2022-08-21T03:14:47;2.85;;;1.77;;
3953;SDS011;1991;48.682;9.030;2022-08-21T03:17:13;4.63;;;2.08;;
3953;SDS011;1991;48.682;9.030;2022-08-21T03:19:39;5.32;;;1.95;;
3953;SDS011;1991;48.682;9.030;2022-08-21T03:22:04;2.95;;;2.25;;
3953;SDS011;1991;48.682;9.030;2022-08-21T03:24:30;4.43;;;2.10;;
3953;SDS011;1991;48.682;9.030;2022-08-21T03:26:56;4.43;;;2.25;;
3953;SDS011;1991;48.682;9.030;2022-08-21T03:29:22;5.18;;;1.80;;
3953;SDS011;1991;48.682;9.030;2022-08-21T03:31:47;4.40;;;2.00;;
3953;SDS011;1991;48.682;9.030;2022-08-21T03:34:13;5.22;;;2.08;;
3953;SDS011;1991;48.682;9.030;2022-08-21T03:36:38;3.15;;;1.77;;
3953;SDS011;1991;48.682;9.030;2022-08-21T03:39:04;4.88;;;1.92;;
3953;SDS011;1991;48.682;9.030;2022-08-21T03:41:30;2.92;;;1.90;;
3953;SDS011;1991;48.682;9.030;2022-08-21T03:43:56;2.38;;;1.67;;
3953;SDS011;1991;48.682;9.030;2022-08-21T03:46:21;3.90;;;2.05;;
3953;SDS011;1991;48.682;9.030;2022-08-21T03:48:47;2.50;;;1.77;;
3953;SDS011;1991;48.682;9.030;2022-08-21T03:51:13;5.18;;;2.28;;
3953;SDS011;1991;48.682;9.030;2022-08-21T03:53:38;9.23;;;2.75;;
3953;SDS011;1991;48.682;9.030;2022-08-21T03:56:04;3.78;;;2.35;;
3953;SDS011;1991;48.682;9.030;2022-08-21T03:58:30;4.00;;;2.08;;
3953;SDS011;1991;48.682;9.030;2022-08-21T04:00:57;3.85;;;2.10;;
3953;SDS011;1991;48.682;9.030;2022-08-21T04:03:24;5.78;;;2.25;;
3953;SDS011;1991;48.682;9.030;2022-08-21T04:05:51;2.75;;;1.90;;
3953;SDS011;1991;48.682;9.030;2022-08-21T04:08:17;4.82;;;1.98;;
3953;SDS011;1991;48.682;9.030;2022-08-21T04:10:44;6.60;;;1.92;;
3953;SDS011;1991;48.682;9.030;2022-08-21T04:13:12;3.78;;;1.70;;
3953;SDS011;1991;48.682;9.030;2022-08-21T04:15:39;3.13;;;1.83;;
3953;SDS011;1991;48.682;9.030;2022-08-21T04:18:05;4.15;;;2.22;;
3953;SDS011;1991;48.682;9.030;2022-08-21T04:20:31;2.47;;;1.80;;
3953;SDS011;1991;48.682;9.030;2022-08-21T04:22:58;4.25;;;2.10;;
3953;SDS011;1991;48.682;9.030;2022-08-21T04:25:23;3.60;;;2.35;;
3953;SDS011;1991;48.682;9.030;2022-08-21T04:27:52;3.65;;;2.00;;
3953;SDS011;1991;48.682;9.030;2022-08-21T04:30:18;3.33;;;2.00;;
3953;SDS011;1991;48.682;9.030;2022-08-21T04:32:45;7.75;;;2.33;;
3953;SDS011;1991;48.682;9.030;2022-08-21T04:35:13;2.95;;;2.15;;
3953;SDS011;1991;48.682;9.030;2022-08-21T04:37:39;3.50;;;2.30;;
3953;SDS011;1991;48.682;9.030;2022-08-21T04:40:07;5.80;;;2.20;;
3953;SDS011;1991;48.682;9.030;2022-08-21T04:42:39;7.63;;;2.38;;
3953;SDS011;1991;48.682;9.030;2022-08-21T04:45:07;3.17;;;2.20;;
3953;SDS011;1991;48.682;9.030;2022-08-21T04:47:33;4.35;;;2.25;;
3953;SDS011;1991;48.682;9.030;2022-08-21T04:49:58;2.85;;;1.95;;
3953;SDS011;1991;48.682;9.030;2022-08-21T04:52:24;2.85;;;1.88;;
3953;SDS011;1991;48.682;9.030;2022-08-21T04:54:50;3.22;;;2.30;;
3953;SDS011;1991;48.682;9.030;2022-08-21T04:57:17;4.85;;;2.67;;
3953;SDS011;1991;48.682;9.030;2022-08-21T04:59:45;3.55;;;2.17;;
3953;SDS011;1991;48.682;9.030;2022-08-21T05:02:13;4.13;;;2.25;;
3953;SDS011;1991;48.682;9.030;2022-08-21T05:04:42;5.15;;;2.40;;
3953;SDS011;1991;48.682;9.030;2022-08-21T05:07:12;3.92;;;2.10;;
3953;SDS011;1991;48.682;9.030;2022-08-21T05:09:42;6.88;;;2.42;;
3953;SDS011;1991;48.682;9.030;2022-08-21T05:12:08;8.60;;;2.60;;
3953;SDS011;1991;48.682;9.030;2022-08-21T05:14:34;4.05;;;2.28;;
3953;SDS011;1991;48.682;9.030;2022-08-21T05:17:00;5.47;;;2.40;;
3953;SDS011;1991;48.682;9.030;2022-08-21T05:19:26;3.50;;;2.65;;
3953;SDS011;1991;48.682;9.030;2022-08-21T05:21:52;3.78;;;2.53;;
3953;SDS011;1991;48.682;9.030;2022-08-21T05:24:18;6.47;;;2.30;;
3953;SDS011;1991;48.682;9.030;2022-08-21T05:26:44;2.55;;;2.35;;
3953;SDS011;1991;48.682;9.030;2022-08-21T05:29:11;4.50;;;2.50;;
3953;SDS011;1991;48.682;9.030;2022-08-21T05:31:37;3.35;;;2.55;;
3953;SDS011;1991;48.682;9.030;2022-08-21T05:34:03;2.80;;;2.30;;
3953;SDS011;1991;48.682;9.030;2022-08-21T05:36:30;4.97;;;2.60;;
3953;SDS011;1991;48.682;9.030;2022-08-21T05:38:57;5.68;;;2.92;;
3953;SDS011;1991;48.682;9.030;2022-08-21T05:41:22;6.18;;;2.53;;
3953;SDS011;1991;48.682;9.030;2022-08-21T05:43:48;3.90;;;2.53;;
3953;SDS011;1991;48.682;9.030;2022-08-21T05:46:14;4.38;;;2.70;;
3953;SDS011;1991;48.682;9.030;2022-08-21T05:48:40;5.88;;;2.97;;
3953;SDS011;1991;48.682;9.030;2022-08-21T05:51:10;4.25;;;2.38;;
3953;SDS011;1991;48.682;9.030;2022-08-21T05:53:38;4.28;;;2.42;;
3953;SDS011;1991;48.682;9.030;2022-08-21T05:56:05;3.70;;;2.38;;
3953;SDS011;1991;48.682;9.030;2022-08-21T05:58:32;2.95;;;2.10;;
3953;SDS011;1991;48.682;9.030;2022-08-21T06:00:59;6.28;;;2.55;;
3953;SDS011;1991;48.682;9.030;2022-08-21T06:03:27;8.50;;;2.50;;
3953;SDS011;1991;48.682;9.030;2022-08-21T06:05:55;6.10;;;2.50;;
3953;SDS011;1991;48.682;9.030;2022-08-21T06:08:21;3.85;;;2.53;;
3953;SDS011;1991;48.682;9.030;2022-08-21T06:10:48;5.00;;;2.30;;
3953;SDS011;1991;48.682;9.030;2022-08-21T06:13:15;4.40;;;2.28;;
3953;SDS011;1991;48.682;9.030;2022-08-21T06:15:42;4.85;;;2.60;;
3953;SDS011;1991;48.682;9.030;2022-08-21T06:18:08;7.95;;;2.50;;
3953;SDS011;1991;48.682;9.030;2022-08-21T06:20:33;6.35;;;2.58;;
3953;SDS011;1991;48.682;9.030;2022-08-21T06:22:59;3.58;;;2.58;;
3953;SDS011;1991;48.682;9.030;2022-08-21T06:25:26;8.30;;;2.30;;
3953;SDS011;1991;48.682;9.030;2022-08-21T06:27:52;7.82;;;2.63;;
3953;SDS011;1991;48.682;9.030;2022-08-21T06:30:18;5.15;;;2.42;;
3953;SDS011;1991;48.682;9.030;2022-08-21T06:32:44;4.35;;;2.42;;
3953;SDS011;1991;48.682;9.030;2022-08-21T06:35:10;6.53;;;2.88;;
3953;SDS011;1991;48.682;9.030;2022-08-21T06:37:36;5.82;;;2.40;;
3953;SDS011;1991;48.682;9.030;2022-08-21T06:40:03;5.10;;;2.50;;
3953;SDS011;1991;48.682;9.030;2022-08-21T06:42:30;4.60;;;2.40;;
3953;SDS011;1991;48.682;9.030;2022-08-21T06:44:57;6.72;;;2.60;;
3953;SDS011;1991;48.682;9.030;2022-08-21T06:47:23;6.32;;;2.70;;
3953;SDS011;1991;48.682;9.030;2022-08-21T06:49:49;9.40;;;2.25;;
3953;SDS011;1991;48.682;9.030;2022-08-21T06:52:14;5.30;;;2.60;;
3953;SDS011;1991;48.682;9.030;2022-08-21T06:54:40;3.55;;;2.17;;
3953;SDS011;1991;48.682;9.030;2022-08-21T06:57:06;4.65;;;2.33;;
3953;SDS011;1991;48.682;9.030;2022-08-21T06:59:32;6.78;;;2.58;;
3953;SDS011;1991;48.682;9.030;2022-08-21T07:01:58;5.72;;;2.92;;
3953;SDS011;1991;48.682;9.030;2022-08-21T07:04:24;6.70;;;2.80;;
3953;SDS011;1991;48.682;9.030;2022-08-21T07:06:50;6.85;;;2.67;;
3953;SDS011;1991;48.682;9.030;2022-08-21T07:09:15;4.35;;;2.55;;
3953;SDS011;1991;48.682;9.030;2022-08-21T07:11:41;7.15;;;2.75;;
3953;SDS011;1991;48.682;9.030;2022-08-21T07:14:09;5.53;;;3.10;;
3953;SDS011;1991;48.682;9.030;2022-08-21T07:16:34;8.52;;;3.28;;
3953;SDS011;1991;48.682;9.030;2022-08-21T07:19:00;4.25;;;2.63;;
3953;SDS011;1991;48.682;9.030;2022-08-21T07:21:26;8.68;;;3.78;;
3953;SDS011;1991;48.682;9.030;2022-08-21T07:23:52;7.05;;;2.80;;
3953;SDS011;1991;48.682;9.030;2022-08-21T07:26:19;9.98;;;3.28;;
3953;SDS011;1991;48.682;9.030;2022-08-21T07:28:47;7.47;;;3.30;;
3953;SDS011;1991;48.682;9.030;2022-08-21T07:31:15;9.05;;;3.53;;
3953;SDS011;1991;48.682;9.030;2022-08-21T07:33:43;8.25;;;3.47;;
3953;SDS011;1991;48.682;9.030;2022-08-21T07:36:09;9.30;;;3.22;;
3953;SDS011;1991;48.682;9.030;2022-08-21T07:38:35;6.28;;;3.50;;
3953;SDS011;1991;48.682;9.030;2022-08-21T07:41:03;9.40;;;3.10;;
3953;SDS011;1991;48.682;9.030;2022-08-21T07:43:37;6.00;;;3.42;;
3953;SDS011;1991;48.682;9.030;2022-08-21T07:46:03;9.70;;;3.10;;
3953;SDS011;1991;48.682;9.030;2022-08-21T07:48:28;6.82;;;3.78;;
3953;SDS011;1991;48.682;9.030;2022-08-21T07:50:54;6.00;;;3.70;;
3953;SDS011;1991;48.682;9.030;2022-08-21T07:53:20;9.25;;;3.03;;
3953;SDS011;1991;48.682;9.030;2022-08-21T07:55:46;7.28;;;2.92;;
3953;SDS011;1991;48.682;9.030;2022-08-21T07:58:11;5.30;;;2.97;;
3953;SDS011;1991;48.682;9.030;2022-08-21T08:00:37;10.27;;;3.50;;
3953;SDS011;1991;48.682;9.030;2022-08-21T08:03:04;6.57;;;2.90;;
3953;SDS011;1991;48.682;9.030;2022-08-21T08:05:30;6.00;;;3.10;;
3953;SDS011;1991;48.682;9.030;2022-08-21T08:07:57;7.78;;;2.85;;
3953;SDS011;1991;48.682;9.030;2022-08-21T08:10:23;5.50;;;3.03;;
3953;SDS011;1991;48.682;9.030;2022-08-21T08:12:50;6.70;;;3.20;;
3953;SDS011;1991;48.682;9.030;2022-08-21T08:15:18;8.05;;;2.83;;
3953;SDS011;1991;48.682;9.030;2022-08-21T08:17:46;6.60;;;2.78;;
3953;SDS011;1991;48.682;9.030;2022-08-21T08:20:13;5.63;;;3.10;;
3953;SDS011;1991;48.682;9.030;2022-08-21T08:22:41;6.55;;;3.35;;
3953;SDS011;1991;48.682;9.030;2022-08-21T08:25:08;7.43;;;3.03;;
3953;SDS011;1991;48.682;9.030;2022-08-21T08:27:35;6.00;;;2.83;;
3953;SDS011;1991;48.682;9.030;2022-08-21T08:30:02;6.00;;;2.70;;
3953;SDS011;1991;48.682;9.030;2022-08-21T08:32:28;7.13;;;2.80;;
3953;SDS011;1991;48.682;9.030;2022-08-21T08:34:54;5.25;;;2.90;;
3953;SDS011;1991;48.682;9.030;2022-08-21T08:37:19;4.90;;;2.55;;
3953;SDS011;1991;48.682;9.030;2022-08-21T08:39:46;6.25;;;2.90;;
3953;SDS011;1991;48.682;9.030;2022-08-21T08:42:16;7.40;;;3.10;;
3953;SDS011;1991;48.682;9.030;2022-08-21T08:44:47;6.10;;;3.10;;
3953;SDS011;1991;48.682;9.030;2022-08-21T08:47:24;4.47;;;2.95;;
3953;SDS011;1991;48.682;9.030;2022-08-21T08:52:22;4.43;;;2.60;;
3953;SDS011;1991;48.682;9.030;2022-08-21T08:55:05;6.15;;;2.80;;
3953;SDS011;1991;48.682;9.030;2022-08-21T08:57:33;9.10;;;2.63;;
3953;SDS011;1991;48.682;9.030;2022-08-21T09:00:00;9.05;;;2.97;;
3953;SDS011;1991;48.682;9.030;2022-08-21T09:02:31;5.93;;;2.65;;
3953;SDS011;1991;48.682;9.030;2022-08-21T09:05:00;4.82;;;2.47;;
3953;SDS011;1991;48.682;9.030;2022-08-21T09:10:22;7.75;;;3.17;;
3953;SDS011;1991;48.682;9.030;2022-08-21T09:13:04;6.13;;;2.72;;
3953;SDS011;1991;48.682;9.030;2022-08-21T09:21:43;5.90;;;2.42;;
3953;SDS011;1991;48.682;9.030;2022-08-21T09:29:49;5.97;;;2.50;;
3953;SDS011;1991;48.682;9.030;2022-08-21T09:32:37;3.92;;;2.03;;
3953;SDS011;1991;48.682;9.030;2022-08-21T09:35:08;5.75;;;2.38;;
3953;SDS011;1991;48.682;9.030;2022-08-21T09:37:55;8.27;;;3.03;;
3953;SDS011;1991;48.682;9.030;2022-08-21T09:45:36;6.13;;;3.55;;
3953;SDS011;1991;48.682;9.030;2022-08-21T09:49:04;4.63;;;2.83;;
3953;SDS011;1991;48.682;9.030;2022-08-21T09:51:11;6.32;;;2.28;;
3953;SDS011;1991;48.682;9.030;2022-08-21T09:53:41;4.43;;;2.35;;
3953;SDS011;1991;48.682;9.030;2022-08-21T09:56:18;6.88;;;3.17;;
3953;SDS011;1991;48.682;9.030;2022-08-21T09:59:15;4.03;;;2.20;;
3953;SDS011;1991;48.682;9.030;2022-08-21T10:01:51;5.13;;;2.25;;
3953;SDS011;1991;48.682;9.030;2022-08-21T10:04:22;6.85;;;2.28;;
3953;SDS011;1991;48.682;9.030;2022-08-21T10:06:52;4.50;;;2.65;;
3953;SDS011;1991;48.682;9.030;2022-08-21T10:09:18;9.32;;;2.20;;
3953;SDS011;1991;48.682;9.030;2022-08-21T10:11:58;4.32;;;2.35;;
3953;SDS011;1991;48.682;9.030;2022-08-21T10:17:38;5.18;;;2.50;;
3953;SDS011;1991;48.682;9.030;2022-08-21T10:20:29;5.97;;;2.33;;
3953;SDS011;1991;48.682;9.030;2022-08-21T10:26:02;6.00;;;2.40;;
3953;SDS011;1991;48.682;9.030;2022-08-21T10:28:45;8.40;;;3.05;;
3953;SDS011;1991;48.682;9.030;2022-08-21T10:39:50;4.32;;;2.67;;
3953;SDS011;1991;48.682;9.030;2022-08-21T10:47:50;5.05;;;2.50;;
3953;SDS011;1991;48.682;9.030;2022-08-21T10:55:52;8.48;;;3.10;;
3953;SDS011;1991;48.682;9.030;2022-08-21T11:00:53;5.25;;;2.80;;
3953;SDS011;1991;48.682;9.030;2022-08-21T11:03:31;5.13;;;2.60;;
3953;SDS011;1991;48.682;9.030;2022-08-21T11:06:11;5.20;;;2.60;;
3953;SDS011;1991;48.682;9.030;2022-08-21T11:08:55;3.15;;;2.60;;
3953;SDS011;1991;48.682;9.030;2022-08-21T11:11:30;4.50;;;2.75;;
3953;SDS011;1991;48.682;9.030;2022-08-21T11:17:15;5.95;;;3.10;;
3953;SDS011;1991;48.682;9.030;2022-08-21T11:19:53;4.25;;;2.58;;
3953;SDS011;1991;48.682;9.030;2022-08-21T11:22:51;3.33;;;2.40;;
3953;SDS011;1991;48.682;9.030;2022-08-21T11:25:26;10.60;;;2.92;;
3953;SDS011;1991;48.682;9.030;2022-08-21T11:27:54;7.68;;;3.00;;
3953;SDS011;1991;48.682;9.030;2022-08-21T11:30:52;4.00;;;2.58;;
3953;SDS011;1991;48.682;9.030;2022-08-21T11:33:41;3.05;;;2.35;;
3953;SDS011;1991;48.682;9.030;2022-08-21T11:36:21;5.65;;;2.70;;
3953;SDS011;1991;48.682;9.030;2022-08-21T11:41:59;4.75;;;2.42;;
3953;SDS011;1991;48.682;9.030;2022-08-21T11:44:37;4.63;;;2.33;;
3953;SDS011;1991;48.682;9.030;2022-08-21T11:50:17;6.00;;;2.70;;
3953;SDS011;1991;48.682;9.030;2022-08-21T11:53:02;5.63;;;3.70;;
3953;SDS011;1991;48.682;9.030;2022-08-21T11:58:28;4.80;;;2.83;;
3953;SDS011;1991;48.682;9.030;2022-08-21T12:01:05;5.65;;;2.80;;
3953;SDS011;1991;48.682;9.030;2022-08-21T12:03:41;6.78;;;2.40;;
3953;SDS011;1991;48.682;9.030;2022-08-21T12:06:16;4.20;;;2.90;;
3953;SDS011;1991;48.682;9.030;2022-08-21T12:09:00;6.75;;;2.95;;
3953;SDS011;1991;48.682;9.030;2022-08-21T12:11:28;5.25;;;2.50;;
3953;SDS011;1991;48.682;9.030;2022-08-21T12:16:37;5.65;;;2.97;;
3953;SDS011;1991;48.682;9.030;2022-08-21T12:19:06;8.05;;;3.17;;
3953;SDS011;1991;48.682;9.030;2022-08-21T12:21:50;4.57;;;2.40;;
3953;SDS011;1991;48.682;9.030;2022-08-21T12:24:36;4.95;;;2.67;;
3953;SDS011;1991;48.682;9.030;2022-08-21T12:29:47;5.40;;;2.60;;
3953;SDS011;1991;48.682;9.030;2022-08-21T12:34:48;6.72;;;2.40;;
3953;SDS011;1991;48.682;9.030;2022-08-21T12:37:45;5.88;;;3.25;;
3953;SDS011;1991;48.682;9.030;2022-08-21T12:40:22;5.50;;;2.53;;
3953;SDS011;1991;48.682;9.030;2022-08-21T12:42:54;6.63;;;2.58;;
3953;SDS011;1991;48.682;9.030;2022-08-21T12:45:26;4.40;;;2.67;;
3953;SDS011;1991;48.682;9.030;2022-08-21T12:55:51;6.22;;;2.75;;
3953;SDS011;1991;48.682;9.030;2022-08-21T12:58:18;3.78;;;2.55;;
3953;SDS011;1991;48.682;9.030;2022-08-21T13:03:31;6.68;;;2.88;;
3953;SDS011;1991;48.682;9.030;2022-08-21T13:05:59;4.13;;;2.58;;
3953;SDS011;1991;48.682;9.030;2022-08-21T13:08:27;4.28;;;2.50;;
3953;SDS011;1991;48.682;9.030;2022-08-21T13:10:58;5.95;;;2.75;;
3953;SDS011;1991;48.682;9.030;2022-08-21T13:13:26;6.18;;;2.50;;
3953;SDS011;1991;48.682;9.030;2022-08-21T13:16:00;6.90;;;2.75;;
3953;SDS011;1991;48.682;9.030;2022-08-21T13:18:30;7.10;;;2.95;;
3953;SDS011;1991;48.682;9.030;2022-08-21T13:21:10;7.72;;;2.70;;
3953;SDS011;1991;48.682;9.030;2022-08-21T13:23:38;5.63;;;2.85;;
3953;SDS011;1991;48.682;9.030;2022-08-21T13:26:15;6.78;;;2.90;;
3953;SDS011;1991;48.682;9.030;2022-08-21T13:28:44;5.80;;;3.17;;
3953;SDS011;1991;48.682;9.030;2022-08-21T13:31:12;4.80;;;2.97;;
3953;SDS011;1991;48.682;9.030;2022-08-21T13:33:43;6.38;;;3.03;;
3953;SDS011;1991;48.682;9.030;2022-08-21T13:36:17;5.50;;;2.58;;
3953;SDS011;1991;48.682;9.030;2022-08-21T13:38:51;6.47;;;3.03;;
3953;SDS011;1991;48.682;9.030;2022-08-21T13:41:20;5.13;;;3.08;;
3953;SDS011;1991;48.682;9.030;2022-08-21T13:44:03;7.88;;;3.05;;
3953;SDS011;1991;48.682;9.030;2022-08-21T13:46:40;7.97;;;3.15;;
3953;SDS011;1991;48.682;9.030;2022-08-21T13:49:07;4.88;;;2.95;;
3953;SDS011;1991;48.682;9.030;2022-08-21T13:51:35;4.85;;;2.65;;
3953;SDS011;1991;48.682;9.030;2022-08-21T13:54:01;8.02;;;2.70;;
3953;SDS011;1991;48.682;9.030;2022-08-21T13:56:29;5.40;;;2.95;;
3953;SDS011;1991;48.682;9.030;2022-08-21T13:58:58;6.05;;;2.60;;
3953;SDS011;1991;48.682;9.030;2022-08-21T14:01:26;7.40;;;2.70;;
3953;SDS011;1991;48.682;9.030;2022-08-21T14:04:14;6.60;;;2.50;;
3953;SDS011;1991;48.682;9.030;2022-08-21T14:06:46;4.65;;;2.42;;
3953;SDS011;1991;48.682;9.030;2022-08-21T14:09:28;6.38;;;2.65;;
3953;SDS011;1991;48.682;9.030;2022-08-21T14:11:57;8.85;;;2.67;;
3953;SDS011;1991;48.682;9.030;2022-08-21T14:14:35;6.85;;;2.78;;
3953;SDS011;1991;48.682;9.030;2022-08-21T14:17:05;4.25;;;2.60;;
3953;SDS011;1991;48.682;9.030;2022-08-21T14:19:41;5.78;;;2.70;;
3953;SDS011;1991;48.682;9.030;2022-08-21T14:30:39;4.60;;;2.33;;
3953;SDS011;1991;48.682;9.030;2022-08-21T14:33:09;5.43;;;2.80;;
3953;SDS011;1991;48.682;9.030;2022-08-21T14:35:36;6.75;;;2.75;;
3953;SDS011;1991;48.682;9.030;2022-08-21T14:38:10;5.45;;;2.97;;
3953;SDS011;1991;48.682;9.030;2022-08-21T14:40:40;8.95;;;3.33;;
3953;SDS011;1991;48.682;9.030;2022-08-21T14:43:06;5.35;;;3.00;;
3953;SDS011;1991;48.682;9.030;2022-08-21T14:45:33;5.28;;;2.90;;
3953;SDS011;1991;48.682;9.030;2022-08-21T14:48:01;5.20;;;2.72;;
3953;SDS011;1991;48.682;9.030;2022-08-21T14:50:27;7.53;;;2.90;;
3953;SDS011;1991;48.682;9.030;2022-08-21T14:52:53;5.65;;;2.72;;
3953;SDS011;1991;48.682;9.030;2022-08-21T14:55:19;3.90;;;2.50;;
3953;SDS011;1991;48.682;9.030;2022-08-21T14:57:47;5.57;;;2.65;;
3953;SDS011;1991;48.682;9.030;2022-08-21T15:00:17;4.13;;;2.47;;
3953;SDS011;1991;48.682;9.030;2022-08-21T15:02:44;5.68;;;3.03;;
3953;SDS011;1991;48.682;9.030;2022-08-21T15:05:10;5.07;;;2.67;;
3953;SDS011;1991;48.682;9.030;2022-08-21T15:07:37;5.68;;;2.67;;
3953;SDS011;1991;48.682;9.030;2022-08-21T15:10:03;4.38;;;2.65;;
3953;SDS011;1991;48.682;9.030;2022-08-21T15:12:30;6.13;;;2.67;;
3953;SDS011;1991;48.682;9.030;2022-08-21T15:14:57;3.83;;;2.38;;
3953;SDS011;1991;48.682;9.030;2022-08-21T15:17:23;3.50;;;2.60;;
3953;SDS011;1991;48.682;9.030;2022-08-21T15:19:49;4.95;;;2.60;;
3953;SDS011;1991;48.682;9.030;2022-08-21T15:22:14;4.72;;;2.50;;
3953;SDS011;1991;48.682;9.030;2022-08-21T15:24:40;7.47;;;2.70;;
3953;SDS011;1991;48.682;9.030;2022-08-21T15:27:06;5.03;;;2.90;;
3953;SDS011;1991;48.682;9.030;2022-08-21T15:29:33;5.53;;;3.28;;
3953;SDS011;1991;48.682;9.030;2022-08-21T15:32:00;4.97;;;2.88;;
3953;SDS011;1991;48.682;9.030;2022-08-21T15:34:39;6.22;;;2.90;;
3953;SDS011;1991;48.682;9.030;2022-08-21T15:37:05;6.60;;;2.90;;
3953;SDS011;1991;48.682;9.030;2022-08-21T15:39:32;5.05;;;2.80;;
3953;SDS011;1991;48.682;9.030;2022-08-21T15:41:59;4.97;;;2.90;;
3953;SDS011;1991;48.682;9.030;2022-08-21T15:44:25;5.55;;;2.80;;
3953;SDS011;1991;48.682;9.030;2022-08-21T15:46:52;7.18;;;2.78;;
3953;SDS011;1991;48.682;9.030;2022-08-21T15:49:18;5.95;;;2.97;;
3953;SDS011;1991;48.682;9.030;2022-08-21T15:51:43;8.65;;;3.13;;
3953;SDS011;1991;48.682;9.030;2022-08-21T15:54:09;4.90;;;2.67;;
3953;SDS011;1991;48.682;9.030;2022-08-21T15:56:36;6.20;;;2.78;;
3953;SDS011;1991;48.682;9.030;2022-08-21T15:59:04;6.55;;;2.83;;
3953;SDS011;1991;48.682;9.030;2022-08-21T16:01:33;4.70;;;2.63;;
3953;SDS011;1991;48.682;9.030;2022-08-21T16:04:00;4.47;;;2.78;;
3953;SDS011;1991;48.682;9.030;2022-08-21T16:06:26;6.85;;;2.90;;
3953;SDS011;1991;48.682;9.030;2022-08-21T16:08:52;4.95;;;2.72;;
3953;SDS011;1991;48.682;9.030;2022-08-21T16:11:18;7.30;;;2.83;;
3953;SDS011;1991;48.682;9.030;2022-08-21T16:13:44;5.53;;;3.03;;
3953;SDS011;1991;48.682;9.030;2022-08-21T16:16:12;5.00;;;2.72;;
3953;SDS011;1991;48.682;9.030;2022-08-21T16:18:41;5.65;;;2.85;;
3953;SDS011;1991;48.682;9.030;2022-08-21T16:21:06;4.78;;;2.83;;
3953;SDS011;1991;48.682;9.030;2022-08-21T16:23:33;5.05;;;2.30;;
3953;SDS011;1991;48.682;9.030;2022-08-21T16:26:00;3.75;;;2.80;;
3953;SDS011;1991;48.682;9.030;2022-08-21T16:28:29;5.38;;;2.67;;
3953;SDS011;1991;48.682;9.030;2022-08-21T16:30:57;6.63;;;2.70;;
3953;SDS011;1991;48.682;9.030;2022-08-21T16:33:33;6.80;;;2.70;;
3953;SDS011;1991;48.682;9.030;2022-08-21T16:36:04;7.40;;;2.60;;
3953;SDS011;1991;48.682;9.030;2022-08-21T16:38:31;4.85;;;2.72;;
3953;SDS011;1991;48.682;9.030;2022-08-21T16:40:58;5.78;;;2.65;;
3953;SDS011;1991;48.682;9.030;2022-08-21T16:43:25;5.53;;;2.75;;
3953;SDS011;1991;48.682;9.030;2022-08-21T16:45:53;6.00;;;2.65;;
3953;SDS011;1991;48.682;9.030;2022-08-21T16:48:20;4.93;;;2.60;;
3953;SDS011;1991;48.682;9.030;2022-08-21T16:50:47;5.00;;;2.92;;
3953;SDS011;1991;48.682;9.030;2022-08-21T16:53:13;7.93;;;2.33;;
3953;SDS011;1991;48.682;9.030;2022-08-21T16:55:39;4.75;;;2.40;;